sensor_id;sensor_type;location;lat;lon;timestamp;temperature;humidity
18781;DHT22;9519;51.890;8.970;2022-07-21T00:02:07;19.60;93.40
18781;DHT22;9519;51.890;8.970;2022-07-21T00:07:09;19.50;95.70
18781;DHT22;9519;51.890;8.970;2022-07-21T00:12:13;19.40;97.60
18781;DHT22;9519;51.890;8.970;2022-07-21T00:17:15;19.30;98.30
18781;DHT22;9519;51.890;8.970;2022-07-21T00:22:17;19.30;99.00
18781;DHT22;9519;51.890;8.970;2022-07-21T00:27:21;19.30;99.60
18781;DHT22;9519;51.890;8.970;2022-07-21T00:32:23;19.30;99.90
18781;DHT22;9519;51.890;8.970;2022-07-21T00:37:25;19.40;99.90
18781;DHT22;9519;51.890;8.970;2022-07-21T00:42:30;19.40;99.90
18781;DHT22;9519;51.890;8.970;2022-07-21T00:47:34;19.40;99.90
18781;DHT22;9519;51.890;8.970;2022-07-21T00:52:36;19.50;99.90
18781;DHT22;9519;51.890;8.970;2022-07-21T00:57:41;19.50;99.90
18781;DHT22;9519;51.890;8.970;2022-07-21T01:02:44;19.50;99.90
18781;DHT22;9519;51.890;8.970;2022-07-21T01:07:48;19.60;99.90
18781;DHT22;9519;51.890;8.970;2022-07-21T01:12:53;19.70;99.90
18781;DHT22;9519;51.890;8.970;2022-07-21T01:17:55;19.70;99.90
18781;DHT22;9519;51.890;8.970;2022-07-21T01:22:59;19.60;99.90
18781;DHT22;9519;51.890;8.970;2022-07-21T01:28:02;19.60;99.90
18781;DHT22;9519;51.890;8.970;2022-07-21T01:33:05;19.50;99.90
18781;DHT22;9519;51.890;8.970;2022-07-21T01:38:08;19.40;99.90
18781;DHT22;9519;51.890;8.970;2022-07-21T01:43:31;19.30;99.90
18781;DHT22;9519;51.890;8.970;2022-07-21T01:48:33;19.20;99.90
18781;DHT22;9519;51.890;8.970;2022-07-21T01:53:37;19.20;99.90
18781;DHT22;9519;51.890;8.970;2022-07-21T01:58:39;19.20;99.90
18781;DHT22;9519;51.890;8.970;2022-07-21T02:03:42;19.20;99.90
18781;DHT22;9519;51.890;8.970;2022-07-21T02:08:45;19.20;99.90
18781;DHT22;9519;51.890;8.970;2022-07-21T02:13:48;19.10;99.90
18781;DHT22;9519;51.890;8.970;2022-07-21T02:18:50;19.10;99.90
18781;DHT22;9519;51.890;8.970;2022-07-21T02:23:54;19.10;99.90
18781;DHT22;9519;51.890;8.970;2022-07-21T02:28:56;19.20;99.90
18781;DHT22;9519;51.890;8.970;2022-07-21T02:33:58;19.20;99.90
18781;DHT22;9519;51.890;8.970;2022-07-21T02:39:02;19.20;99.90
18781;DHT22;9519;51.890;8.970;2022-07-21T02:44:05;19.20;99.90
18781;DHT22;9519;51.890;8.970;2022-07-21T02:49:07;19.20;99.90
18781;DHT22;9519;51.890;8.970;2022-07-21T02:54:10;19.30;99.90
18781;DHT22;9519;51.890;8.970;2022-07-21T02:59:12;19.20;99.90
18781;DHT22;9519;51.890;8.970;2022-07-21T03:04:15;19.20;99.90
18781;DHT22;9519;51.890;8.970;2022-07-21T03:09:18;19.20;99.90
18781;DHT22;9519;51.890;8.970;2022-07-21T03:14:20;19.30;99.90
18781;DHT22;9519;51.890;8.970;2022-07-21T03:19:22;19.30;99.90
18781;DHT22;9519;51.890;8.970;2022-07-21T03:24:27;19.30;99.90
18781;DHT22;9519;51.890;8.970;2022-07-21T03:29:30;19.30;99.90
18781;DHT22;9519;51.890;8.970;2022-07-21T03:34:32;19.40;99.90
18781;DHT22;9519;51.890;8.970;2022-07-21T03:39:35;19.40;99.90
18781;DHT22;9519;51.890;8.970;2022-07-21T03:44:38;19.50;99.90
18781;DHT22;9519;51.890;8.970;2022-07-21T03:49:40;19.40;99.90
18781;DHT22;9519;51.890;8.970;2022-07-21T03:54:43;19.50;99.90
18781;DHT22;9519;51.890;8.970;2022-07-21T03:59:45;19.50;99.90
18781;DHT22;9519;51.890;8.970;2022-07-21T04:04:47;19.60;99.90
18781;DHT22;9519;51.890;8.970;2022-07-21T04:09:51;19.60;99.90
18781;DHT22;9519;51.890;8.970;2022-07-21T04:14:53;19.70;99.90
18781;DHT22;9519;51.890;8.970;2022-07-21T04:19:55;19.60;99.90
18781;DHT22;9519;51.890;8.970;2022-07-21T04:24:59;19.40;99.90
18781;DHT22;9519;51.890;8.970;2022-07-21T04:30:02;19.30;99.90
18781;DHT22;9519;51.890;8.970;2022-07-21T04:35:05;19.30;99.90
18781;DHT22;9519;51.890;8.970;2022-07-21T04:40:11;19.20;99.90
18781;DHT22;9519;51.890;8.970;2022-07-21T04:45:15;19.00;99.90
18781;DHT22;9519;51.890;8.970;2022-07-21T04:50:20;18.90;99.90
18781;DHT22;9519;51.890;8.970;2022-07-21T04:55:25;18.90;99.90
18781;DHT22;9519;51.890;8.970;2022-07-21T05:00:28;18.80;99.90
18781;DHT22;9519;51.890;8.970;2022-07-21T05:05:30;18.70;99.90
18781;DHT22;9519;51.890;8.970;2022-07-21T05:10:34;18.70;99.90
18781;DHT22;9519;51.890;8.970;2022-07-21T05:15:36;18.60;99.90
18781;DHT22;9519;51.890;8.970;2022-07-21T05:20:38;18.60;99.90
18781;DHT22;9519;51.890;8.970;2022-07-21T05:25:41;18.60;99.90
18781;DHT22;9519;51.890;8.970;2022-07-21T05:30:44;18.60;99.90
18781;DHT22;9519;51.890;8.970;2022-07-21T05:35:46;18.60;99.90
18781;DHT22;9519;51.890;8.970;2022-07-21T05:40:49;18.60;99.90
18781;DHT22;9519;51.890;8.970;2022-07-21T05:45:51;18.60;99.90
18781;DHT22;9519;51.890;8.970;2022-07-21T05:50:54;18.70;99.90
18781;DHT22;9519;51.890;8.970;2022-07-21T05:55:57;18.90;99.90
18781;DHT22;9519;51.890;8.970;2022-07-21T06:01:00;19.00;99.90
18781;DHT22;9519;51.890;8.970;2022-07-21T06:06:14;19.10;99.90
18781;DHT22;9519;51.890;8.970;2022-07-21T06:11:20;19.20;99.90
18781;DHT22;9519;51.890;8.970;2022-07-21T06:16:22;19.10;99.90
18781;DHT22;9519;51.890;8.970;2022-07-21T06:21:26;19.20;99.90
18781;DHT22;9519;51.890;8.970;2022-07-21T06:26:30;19.10;99.90
18781;DHT22;9519;51.890;8.970;2022-07-21T06:31:32;19.00;99.90
18781;DHT22;9519;51.890;8.970;2022-07-21T06:36:34;19.10;99.90
18781;DHT22;9519;51.890;8.970;2022-07-21T06:41:38;19.10;99.90
18781;DHT22;9519;51.890;8.970;2022-07-21T06:46:40;19.10;99.90
18781;DHT22;9519;51.890;8.970;2022-07-21T06:51:42;19.20;99.90
18781;DHT22;9519;51.890;8.970;2022-07-21T06:56:46;19.30;99.90
18781;DHT22;9519;51.890;8.970;2022-07-21T07:01:48;19.40;99.90
18781;DHT22;9519;51.890;8.970;2022-07-21T07:06:50;19.50;99.90
18781;DHT22;9519;51.890;8.970;2022-07-21T07:11:55;19.60;99.90
18781;DHT22;9519;51.890;8.970;2022-07-21T07:17:04;19.50;99.90
18781;DHT22;9519;51.890;8.970;2022-07-21T07:22:06;19.50;99.90
18781;DHT22;9519;51.890;8.970;2022-07-21T07:27:09;19.50;99.90
18781;DHT22;9519;51.890;8.970;2022-07-21T07:32:11;19.50;99.90
18781;DHT22;9519;51.890;8.970;2022-07-21T07:37:13;19.50;99.90
18781;DHT22;9519;51.890;8.970;2022-07-21T07:42:17;19.60;99.90
18781;DHT22;9519;51.890;8.970;2022-07-21T07:47:19;19.70;99.90
18781;DHT22;9519;51.890;8.970;2022-07-21T07:52:22;19.70;99.90
18781;DHT22;9519;51.890;8.970;2022-07-21T07:57:26;19.90;99.90
18781;DHT22;9519;51.890;8.970;2022-07-21T08:02:28;20.00;99.90
18781;DHT22;9519;51.890;8.970;2022-07-21T08:07:30;20.10;99.90
18781;DHT22;9519;51.890;8.970;2022-07-21T08:12:34;20.30;99.90
18781;DHT22;9519;51.890;8.970;2022-07-21T08:17:36;20.30;99.90
18781;DHT22;9519;51.890;8.970;2022-07-21T08:22:38;20.30;99.90
18781;DHT22;9519;51.890;8.970;2022-07-21T08:27:42;20.40;99.90
18781;DHT22;9519;51.890;8.970;2022-07-21T08:32:47;20.40;99.90
18781;DHT22;9519;51.890;8.970;2022-07-21T08:37:54;20.40;99.90
18781;DHT22;9519;51.890;8.970;2022-07-21T08:43:02;20.40;99.90
18781;DHT22;9519;51.890;8.970;2022-07-21T08:48:05;20.40;99.90
18781;DHT22;9519;51.890;8.970;2022-07-21T08:53:08;20.60;99.90
18781;DHT22;9519;51.890;8.970;2022-07-21T08:58:12;20.70;99.90
18781;DHT22;9519;51.890;8.970;2022-07-21T09:03:16;20.90;99.90
18781;DHT22;9519;51.890;8.970;2022-07-21T09:08:28;20.90;99.90
18781;DHT22;9519;51.890;8.970;2022-07-21T09:13:33;21.00;99.90
18781;DHT22;9519;51.890;8.970;2022-07-21T09:18:47;21.00;99.90
18781;DHT22;9519;51.890;8.970;2022-07-21T09:23:50;21.00;99.90
18781;DHT22;9519;51.890;8.970;2022-07-21T09:28:53;21.10;99.90
18781;DHT22;9519;51.890;8.970;2022-07-21T09:34:13;21.20;99.90
18781;DHT22;9519;51.890;8.970;2022-07-21T09:39:15;21.20;99.90
18781;DHT22;9519;51.890;8.970;2022-07-21T09:44:30;21.40;99.90
18781;DHT22;9519;51.890;8.970;2022-07-21T09:49:32;21.60;99.90
18781;DHT22;9519;51.890;8.970;2022-07-21T09:54:34;21.70;99.90
18781;DHT22;9519;51.890;8.970;2022-07-21T09:59:38;21.80;99.90
18781;DHT22;9519;51.890;8.970;2022-07-21T10:04:42;22.00;99.90
18781;DHT22;9519;51.890;8.970;2022-07-21T10:09:45;22.20;99.90
18781;DHT22;9519;51.890;8.970;2022-07-21T10:14:49;22.30;99.90
18781;DHT22;9519;51.890;8.970;2022-07-21T10:20:04;22.40;99.90
18781;DHT22;9519;51.890;8.970;2022-07-21T10:25:11;22.50;99.90
18781;DHT22;9519;51.890;8.970;2022-07-21T10:30:14;22.50;99.90
18781;DHT22;9519;51.890;8.970;2022-07-21T10:35:27;22.40;99.90
18781;DHT22;9519;51.890;8.970;2022-07-21T10:40:36;22.40;99.90
18781;DHT22;9519;51.890;8.970;2022-07-21T10:45:42;22.40;99.90
18781;DHT22;9519;51.890;8.970;2022-07-21T10:50:52;22.50;99.90
18781;DHT22;9519;51.890;8.970;2022-07-21T10:55:54;22.80;99.90
18781;DHT22;9519;51.890;8.970;2022-07-21T11:00:59;23.00;99.90
18781;DHT22;9519;51.890;8.970;2022-07-21T11:06:16;23.30;99.60
18781;DHT22;9519;51.890;8.970;2022-07-21T11:11:25;23.30;97.90
18781;DHT22;9519;51.890;8.970;2022-07-21T11:22:14;23.40;97.70
18781;DHT22;9519;51.890;8.970;2022-07-21T11:27:19;23.50;96.90
18781;DHT22;9519;51.890;8.970;2022-07-21T11:32:25;23.50;96.90
18781;DHT22;9519;51.890;8.970;2022-07-21T11:37:30;23.40;98.30
18781;DHT22;9519;51.890;8.970;2022-07-21T11:42:33;23.00;99.40
18781;DHT22;9519;51.890;8.970;2022-07-21T11:47:37;22.80;99.90
18781;DHT22;9519;51.890;8.970;2022-07-21T11:52:40;22.70;99.90
18781;DHT22;9519;51.890;8.970;2022-07-21T11:57:44;22.70;99.90
18781;DHT22;9519;51.890;8.970;2022-07-21T12:02:49;22.70;99.90
18781;DHT22;9519;51.890;8.970;2022-07-21T12:07:51;22.70;99.90
18781;DHT22;9519;51.890;8.970;2022-07-21T12:12:58;22.60;99.90
18781;DHT22;9519;51.890;8.970;2022-07-21T12:18:05;22.50;99.90
18781;DHT22;9519;51.890;8.970;2022-07-21T12:23:19;22.40;99.90
18781;DHT22;9519;51.890;8.970;2022-07-21T12:28:44;22.30;99.90
18781;DHT22;9519;51.890;8.970;2022-07-21T12:33:50;22.30;99.90
18781;DHT22;9519;51.890;8.970;2022-07-21T12:38:53;22.20;99.90
18781;DHT22;9519;51.890;8.970;2022-07-21T12:43:56;22.20;99.90
18781;DHT22;9519;51.890;8.970;2022-07-21T12:49:05;22.10;99.90
18781;DHT22;9519;51.890;8.970;2022-07-21T12:54:09;22.00;99.90
18781;DHT22;9519;51.890;8.970;2022-07-21T12:59:14;21.90;99.90
18781;DHT22;9519;51.890;8.970;2022-07-21T13:04:17;21.70;99.90
18781;DHT22;9519;51.890;8.970;2022-07-21T13:09:19;21.60;99.90
18781;DHT22;9519;51.890;8.970;2022-07-21T13:14:22;21.60;99.90
18781;DHT22;9519;51.890;8.970;2022-07-21T13:19:28;21.70;99.90
18781;DHT22;9519;51.890;8.970;2022-07-21T13:24:30;21.60;99.90
18781;DHT22;9519;51.890;8.970;2022-07-21T13:29:33;21.30;99.90
18781;DHT22;9519;51.890;8.970;2022-07-21T13:34:37;21.10;99.90
18781;DHT22;9519;51.890;8.970;2022-07-21T13:39:39;21.00;99.90
18781;DHT22;9519;51.890;8.970;2022-07-21T13:44:42;21.20;99.90
18781;DHT22;9519;51.890;8.970;2022-07-21T13:49:45;21.30;99.90
18781;DHT22;9519;51.890;8.970;2022-07-21T13:54:49;21.40;99.90
18781;DHT22;9519;51.890;8.970;2022-07-21T13:59:51;21.50;99.90
18781;DHT22;9519;51.890;8.970;2022-07-21T14:04:55;21.60;99.90
18781;DHT22;9519;51.890;8.970;2022-07-21T14:09:57;21.60;99.90
18781;DHT22;9519;51.890;8.970;2022-07-21T14:14:59;21.70;99.90
18781;DHT22;9519;51.890;8.970;2022-07-21T14:20:03;21.90;99.90
18781;DHT22;9519;51.890;8.970;2022-07-21T14:25:08;22.30;99.90
18781;DHT22;9519;51.890;8.970;2022-07-21T14:30:27;22.60;99.90
18781;DHT22;9519;51.890;8.970;2022-07-21T14:35:31;22.70;99.90
18781;DHT22;9519;51.890;8.970;2022-07-21T14:40:33;22.60;99.90
18781;DHT22;9519;51.890;8.970;2022-07-21T14:45:36;22.40;99.90
18781;DHT22;9519;51.890;8.970;2022-07-21T14:50:40;22.30;99.90
18781;DHT22;9519;51.890;8.970;2022-07-21T14:55:42;22.30;99.90
18781;DHT22;9519;51.890;8.970;2022-07-21T15:00:44;22.40;99.90
18781;DHT22;9519;51.890;8.970;2022-07-21T15:05:47;22.80;99.90
18781;DHT22;9519;51.890;8.970;2022-07-21T15:10:50;23.30;99.90
18781;DHT22;9519;51.890;8.970;2022-07-21T15:15:52;23.60;99.50
18781;DHT22;9519;51.890;8.970;2022-07-21T15:20:55;23.90;99.20
18781;DHT22;9519;51.890;8.970;2022-07-21T15:25:57;24.00;98.60
18781;DHT22;9519;51.890;8.970;2022-07-21T15:30:59;24.10;97.80
18781;DHT22;9519;51.890;8.970;2022-07-21T15:36:03;24.10;97.40
18781;DHT22;9519;51.890;8.970;2022-07-21T15:41:06;24.10;97.70
18781;DHT22;9519;51.890;8.970;2022-07-21T15:46:08;24.20;97.20
18781;DHT22;9519;51.890;8.970;2022-07-21T15:51:14;24.30;96.20
18781;DHT22;9519;51.890;8.970;2022-07-21T15:56:17;24.00;95.90
18781;DHT22;9519;51.890;8.970;2022-07-21T16:01:19;23.70;96.00
18781;DHT22;9519;51.890;8.970;2022-07-21T16:06:22;23.30;96.00
18781;DHT22;9519;51.890;8.970;2022-07-21T16:11:25;23.20;96.50
18781;DHT22;9519;51.890;8.970;2022-07-21T16:16:27;23.00;96.80
18781;DHT22;9519;51.890;8.970;2022-07-21T16:21:31;22.90;96.90
18781;DHT22;9519;51.890;8.970;2022-07-21T16:26:34;22.80;97.40
18781;DHT22;9519;51.890;8.970;2022-07-21T16:31:36;22.70;97.50
18781;DHT22;9519;51.890;8.970;2022-07-21T16:36:41;22.60;97.80
18781;DHT22;9519;51.890;8.970;2022-07-21T16:41:45;22.50;97.70
18781;DHT22;9519;51.890;8.970;2022-07-21T16:46:48;22.30;98.00
18781;DHT22;9519;51.890;8.970;2022-07-21T16:51:52;22.20;98.30
18781;DHT22;9519;51.890;8.970;2022-07-21T16:56:55;22.10;98.70
18781;DHT22;9519;51.890;8.970;2022-07-21T17:01:57;21.90;99.10
18781;DHT22;9519;51.890;8.970;2022-07-21T17:07:02;21.80;99.70
18781;DHT22;9519;51.890;8.970;2022-07-21T17:12:04;21.70;99.90
18781;DHT22;9519;51.890;8.970;2022-07-21T17:17:07;21.60;99.90
18781;DHT22;9519;51.890;8.970;2022-07-21T17:22:10;21.50;99.90
18781;DHT22;9519;51.890;8.970;2022-07-21T17:27:13;21.30;99.90
18781;DHT22;9519;51.890;8.970;2022-07-21T17:32:15;21.10;99.90
18781;DHT22;9519;51.890;8.970;2022-07-21T17:37:19;20.80;99.90
18781;DHT22;9519;51.890;8.970;2022-07-21T17:42:22;20.50;99.90
18781;DHT22;9519;51.890;8.970;2022-07-21T17:47:24;20.30;99.90
18781;DHT22;9519;51.890;8.970;2022-07-21T17:52:28;20.10;99.90
18781;DHT22;9519;51.890;8.970;2022-07-21T17:57:30;19.90;99.90
18781;DHT22;9519;51.890;8.970;2022-07-21T18:02:52;19.60;99.90
18781;DHT22;9519;51.890;8.970;2022-07-21T18:07:55;19.50;99.90
18781;DHT22;9519;51.890;8.970;2022-07-21T18:12:57;19.40;99.90
18781;DHT22;9519;51.890;8.970;2022-07-21T18:18:00;19.30;99.90
18781;DHT22;9519;51.890;8.970;2022-07-21T18:23:04;19.20;99.90
18781;DHT22;9519;51.890;8.970;2022-07-21T18:28:07;19.10;99.90
18781;DHT22;9519;51.890;8.970;2022-07-21T18:33:13;19.00;99.90
18781;DHT22;9519;51.890;8.970;2022-07-21T18:38:18;18.80;99.90
18781;DHT22;9519;51.890;8.970;2022-07-21T18:43:21;18.80;99.90
18781;DHT22;9519;51.890;8.970;2022-07-21T18:48:23;18.70;99.90
18781;DHT22;9519;51.890;8.970;2022-07-21T18:53:27;18.60;99.90
18781;DHT22;9519;51.890;8.970;2022-07-21T18:58:29;18.60;99.90
18781;DHT22;9519;51.890;8.970;2022-07-21T19:03:31;18.60;99.90
18781;DHT22;9519;51.890;8.970;2022-07-21T19:08:35;18.60;99.90
18781;DHT22;9519;51.890;8.970;2022-07-21T19:13:38;18.60;99.90
18781;DHT22;9519;51.890;8.970;2022-07-21T19:18:40;18.60;99.90
18781;DHT22;9519;51.890;8.970;2022-07-21T19:23:43;18.60;99.90
18781;DHT22;9519;51.890;8.970;2022-07-21T19:28:45;18.60;99.90
18781;DHT22;9519;51.890;8.970;2022-07-21T19:33:49;18.60;99.90
18781;DHT22;9519;51.890;8.970;2022-07-21T19:38:52;18.60;99.90
18781;DHT22;9519;51.890;8.970;2022-07-21T19:43:55;18.60;99.90
18781;DHT22;9519;51.890;8.970;2022-07-21T19:48:57;18.60;99.90
18781;DHT22;9519;51.890;8.970;2022-07-21T19:54:00;18.60;99.90
18781;DHT22;9519;51.890;8.970;2022-07-21T19:59:02;18.60;99.90
18781;DHT22;9519;51.890;8.970;2022-07-21T20:04:05;18.60;99.90
18781;DHT22;9519;51.890;8.970;2022-07-21T20:09:08;18.60;99.90
18781;DHT22;9519;51.890;8.970;2022-07-21T20:14:11;18.60;99.90
18781;DHT22;9519;51.890;8.970;2022-07-21T20:19:13;18.60;99.90
18781;DHT22;9519;51.890;8.970;2022-07-21T20:24:17;18.50;99.90
18781;DHT22;9519;51.890;8.970;2022-07-21T20:29:20;18.50;99.90
18781;DHT22;9519;51.890;8.970;2022-07-21T20:34:22;18.50;99.90
18781;DHT22;9519;51.890;8.970;2022-07-21T20:39:26;18.50;99.90
18781;DHT22;9519;51.890;8.970;2022-07-21T20:44:28;18.50;99.90
18781;DHT22;9519;51.890;8.970;2022-07-21T20:49:31;18.60;99.90
18781;DHT22;9519;51.890;8.970;2022-07-21T20:54:34;18.60;99.90
18781;DHT22;9519;51.890;8.970;2022-07-21T20:59:37;18.60;99.90
18781;DHT22;9519;51.890;8.970;2022-07-21T21:04:39;18.60;99.90
18781;DHT22;9519;51.890;8.970;2022-07-21T21:09:43;18.50;99.90
18781;DHT22;9519;51.890;8.970;2022-07-21T21:14:45;18.50;99.90
18781;DHT22;9519;51.890;8.970;2022-07-21T21:19:47;18.50;99.90
18781;DHT22;9519;51.890;8.970;2022-07-21T21:24:51;18.50;99.90
18781;DHT22;9519;51.890;8.970;2022-07-21T21:29:53;18.50;99.90
18781;DHT22;9519;51.890;8.970;2022-07-21T21:34:55;18.40;99.90
18781;DHT22;9519;51.890;8.970;2022-07-21T21:39:59;18.40;99.90
18781;DHT22;9519;51.890;8.970;2022-07-21T21:45:02;18.40;99.90
18781;DHT22;9519;51.890;8.970;2022-07-21T21:50:05;18.40;99.90
18781;DHT22;9519;51.890;8.970;2022-07-21T21:55:09;18.40;99.90
18781;DHT22;9519;51.890;8.970;2022-07-21T22:00:13;18.40;99.90
18781;DHT22;9519;51.890;8.970;2022-07-21T22:05:16;18.40;99.90
18781;DHT22;9519;51.890;8.970;2022-07-21T22:10:20;18.40;99.90
18781;DHT22;9519;51.890;8.970;2022-07-21T22:15:22;18.40;99.90
18781;DHT22;9519;51.890;8.970;2022-07-21T22:20:24;18.40;99.90
18781;DHT22;9519;51.890;8.970;2022-07-21T22:25:28;18.40;99.90
18781;DHT22;9519;51.890;8.970;2022-07-21T22:30:30;18.40;99.90
18781;DHT22;9519;51.890;8.970;2022-07-21T22:35:32;18.40;99.90
18781;DHT22;9519;51.890;8.970;2022-07-21T22:40:36;18.40;99.90
18781;DHT22;9519;51.890;8.970;2022-07-21T22:45:40;18.40;99.90
18781;DHT22;9519;51.890;8.970;2022-07-21T22:50:42;18.40;99.90
18781;DHT22;9519;51.890;8.970;2022-07-21T22:55:45;18.40;99.90
18781;DHT22;9519;51.890;8.970;2022-07-21T23:00:47;18.40;99.90
18781;DHT22;9519;51.890;8.970;2022-07-21T23:05:50;18.40;99.90
18781;DHT22;9519;51.890;8.970;2022-07-21T23:10:54;18.40;99.90
18781;DHT22;9519;51.890;8.970;2022-07-21T23:15:56;18.40;99.90
18781;DHT22;9519;51.890;8.970;2022-07-21T23:20:58;18.40;99.90
18781;DHT22;9519;51.890;8.970;2022-07-21T23:26:01;18.40;99.90
18781;DHT22;9519;51.890;8.970;2022-07-21T23:31:04;18.40;99.90
18781;DHT22;9519;51.890;8.970;2022-07-21T23:36:07;18.40;99.90
18781;DHT22;9519;51.890;8.970;2022-07-21T23:41:10;18.40;99.90
18781;DHT22;9519;51.890;8.970;2022-07-21T23:46:12;18.40;99.90
18781;DHT22;9519;51.890;8.970;2022-07-21T23:51:15;18.50;99.90
18781;DHT22;9519;51.890;8.970;2022-07-21T23:56:18;18.50;99.90
